Terminal Aerodrome Forecast
Issued by NWS

Home | Current Version | Previous Version | Text Only | Print | Product List | Glossary On
Versions: 1 2 3 4 5 6 7 8 9 10 11 12 13
765
FTUS44 KBMX 222337
TAFTOI
TAF
KTOI 222337Z 2300/2324 13015G20KT 6SM SHRA SCT015 BKN035 OVC050
      TEMPO 2302/2305 2SM TSRA BKN015CB
     FM230500 18013KT 4SM SHRA BKN015 OVC025
     FM230700 18010KT P6SM BKN007
     FM231200 19007KT 2SM BR BKN005
     FM231500 22007KT 6SM -DZ OVC015=

USA.gov is the U.S. government's official web portal to all federal, state and local government web resources and services.